createdAt,value
2023-11-15T00:01:08.852Z,100.00
2023-11-15T00:03:55.106Z,100.00
2023-11-15T00:06:24.188Z,100.00
2023-11-15T00:08:52.405Z,100.00
2023-11-15T00:11:20.325Z,100.00
2023-11-15T00:13:51.746Z,100.00
2023-11-15T00:16:19.541Z,100.00
2023-11-15T00:18:47.166Z,100.00
2023-11-15T00:21:15.647Z,100.00
2023-11-15T00:23:44.460Z,100.00
2023-11-15T00:26:11.992Z,100.00
2023-11-15T00:28:44.593Z,100.00
2023-11-15T00:31:12.918Z,100.00
2023-11-15T00:33:58.607Z,100.00
2023-11-15T00:36:26.276Z,100.00
2023-11-15T00:39:13.781Z,100.00
2023-11-15T00:41:41.871Z,100.00
2023-11-15T00:44:09.385Z,100.00
2023-11-15T00:46:37.241Z,100.00
2023-11-15T00:49:04.981Z,100.00
2023-11-15T00:51:32.419Z,100.00
2023-11-15T00:54:00.148Z,100.00
2023-11-15T00:56:29.231Z,100.00
2023-11-15T00:58:57.900Z,100.00
2023-11-15T01:01:28.673Z,100.00
2023-11-15T01:04:14.966Z,100.00
2023-11-15T01:06:42.457Z,100.00
2023-11-15T01:09:11.419Z,100.00
2023-11-15T01:11:40.428Z,100.00
2023-11-15T01:14:08.032Z,100.00
2023-11-15T01:16:37.479Z,100.00
2023-11-15T01:19:23.721Z,100.00
2023-11-15T01:21:51.702Z,100.00
2023-11-15T01:24:40.733Z,100.00
2023-11-15T01:27:09.705Z,100.00
2023-11-15T01:29:37.361Z,100.00
2023-11-15T01:32:05.060Z,100.00
2023-11-15T01:34:33.884Z,100.00
2023-11-15T01:37:01.427Z,100.00
2023-11-15T01:39:30.883Z,100.00
2023-11-15T01:41:58.357Z,100.00
2023-11-15T01:44:28.475Z,100.00
2023-11-15T01:46:56.123Z,100.00
2023-11-15T01:49:24.350Z,100.00
2023-11-15T01:51:52.312Z,100.00
2023-11-15T01:54:22.661Z,100.00
2023-11-15T01:56:50.533Z,100.00
2023-11-15T01:59:18.196Z,100.00
2023-11-15T02:01:48.624Z,100.00
2023-11-15T02:04:16.390Z,100.00
2023-11-15T02:06:43.936Z,100.00
2023-11-15T02:09:11.632Z,100.00
2023-11-15T02:11:39.854Z,100.00
2023-11-15T02:14:07.350Z,100.00
2023-11-15T02:16:34.870Z,100.00
2023-11-15T02:19:03.726Z,100.00
2023-11-15T02:21:31.269Z,100.00
2023-11-15T02:24:00.319Z,100.00
2023-11-15T02:26:47.907Z,100.00
2023-11-15T02:29:15.472Z,100.00
2023-11-15T02:31:42.977Z,100.00
2023-11-15T02:34:10.628Z,100.00
2023-11-15T02:36:38.080Z,100.00
2023-11-15T02:39:09.972Z,100.00
2023-11-15T02:41:37.523Z,100.00
2023-11-15T02:44:05.681Z,100.00
2023-11-15T02:46:33.705Z,100.00
2023-11-15T02:49:19.665Z,100.00
2023-11-15T02:51:50.198Z,100.00
2023-11-15T02:54:19.413Z,100.00
2023-11-15T02:56:46.951Z,100.00
2023-11-15T02:59:14.524Z,100.00
2023-11-15T03:01:46.938Z,100.00
2023-11-15T03:04:14.750Z,100.00
2023-11-15T03:06:42.305Z,100.00
2023-11-15T03:09:09.787Z,100.00
2023-11-15T03:11:38.782Z,100.00
2023-11-15T03:14:06.302Z,100.00
2023-11-15T03:16:33.768Z,100.00
2023-11-15T03:19:01.255Z,100.00
2023-11-15T03:21:29.403Z,100.00
2023-11-15T03:23:56.920Z,100.00
2023-11-15T03:26:25.283Z,100.00
2023-11-15T03:28:54.117Z,100.00
2023-11-15T03:31:21.973Z,100.00
2023-11-15T03:33:49.671Z,100.00
2023-11-15T03:36:17.526Z,100.00
2023-11-15T03:39:03.940Z,100.00
2023-11-15T03:41:31.433Z,100.00
2023-11-15T03:44:00.293Z,100.00
2023-11-15T03:46:27.896Z,100.00
2023-11-15T03:48:55.354Z,100.00
2023-11-15T03:51:23.210Z,100.00
2023-11-15T03:53:50.768Z,100.00
2023-11-15T03:56:18.241Z,100.00
2023-11-15T03:58:45.780Z,100.00
2023-11-15T04:01:15.232Z,100.00
2023-11-15T04:03:43.198Z,100.00
2023-11-15T04:06:11.103Z,100.00
2023-11-15T04:08:38.712Z,100.00
2023-11-15T04:11:06.350Z,100.00
2023-11-15T04:13:35.494Z,100.00
2023-11-15T04:16:04.490Z,100.00
2023-11-15T04:18:34.276Z,100.00
2023-11-15T04:21:02.044Z,100.00
2023-11-15T04:23:29.841Z,100.00
2023-11-15T04:25:59.499Z,100.00
2023-11-15T04:28:27.103Z,100.00
2023-11-15T04:30:54.577Z,100.00
2023-11-15T04:33:22.175Z,100.00
2023-11-15T04:35:51.080Z,100.00
2023-11-15T04:38:18.534Z,100.00
2023-11-15T04:40:46.574Z,100.00
2023-11-15T04:43:14.215Z,100.00
2023-11-15T04:45:41.791Z,100.00
2023-11-15T04:48:09.352Z,100.00
2023-11-15T04:50:37.617Z,100.00
2023-11-15T04:53:08.295Z,100.00
2023-11-15T04:55:35.949Z,100.00
2023-11-15T04:58:03.380Z,100.00
2023-11-15T05:00:49.631Z,100.00
2023-11-15T05:03:17.255Z,100.00
2023-11-15T05:05:46.948Z,100.00
2023-11-15T05:08:16.077Z,100.00
2023-11-15T05:10:43.479Z,100.00
2023-11-15T05:13:32.573Z,100.00
2023-11-15T05:16:00.354Z,100.00
2023-11-15T05:18:27.943Z,100.00
2023-11-15T05:20:55.500Z,100.00
2023-11-15T05:23:24.807Z,100.00
2023-11-15T05:25:52.301Z,100.00
2023-11-15T05:28:22.034Z,100.00
2023-11-15T05:30:49.600Z,100.00
2023-11-15T05:33:17.211Z,100.00
2023-11-15T05:35:46.183Z,100.00
2023-11-15T05:38:14.392Z,100.00
2023-11-15T05:40:44.710Z,100.00
2023-11-15T05:43:12.347Z,100.00
2023-11-15T05:45:39.780Z,100.00
2023-11-15T05:48:07.598Z,100.00
2023-11-15T05:50:35.201Z,100.00
2023-11-15T05:53:02.755Z,100.00
2023-11-15T05:55:50.014Z,100.00
2023-11-15T05:58:17.281Z,100.00
2023-11-15T06:01:04.338Z,100.00
2023-11-15T06:03:31.857Z,100.00
2023-11-15T06:06:00.514Z,100.00
2023-11-15T06:08:28.025Z,100.00
2023-11-15T06:10:56.830Z,100.00
2023-11-15T06:13:27.146Z,100.00
2023-11-15T06:15:54.577Z,100.00
2023-11-15T06:18:22.935Z,100.00
2023-11-15T06:20:51.231Z,100.00
2023-11-15T06:23:18.866Z,100.00
2023-11-15T06:25:47.361Z,100.00
2023-11-15T06:28:16.151Z,100.00
2023-11-15T06:30:46.198Z,100.00
2023-11-15T06:33:14.024Z,100.00
2023-11-15T06:35:41.879Z,100.00
2023-11-15T06:38:09.611Z,100.00
2023-11-15T06:40:37.077Z,100.00
2023-11-15T06:43:04.689Z,100.00
2023-11-15T06:45:33.627Z,100.00
2023-11-15T06:48:01.726Z,100.00
2023-11-15T06:50:29.648Z,100.00
2023-11-15T06:52:57.199Z,100.00
2023-11-15T06:55:24.748Z,100.00
2023-11-15T06:57:52.335Z,100.00
2023-11-15T07:00:43.239Z,100.00
2023-11-15T07:03:13.503Z,100.00
2023-11-15T07:05:42.069Z,100.00
2023-11-15T07:08:11.072Z,100.00
2023-11-15T07:10:38.780Z,100.00
2023-11-15T07:13:08.354Z,100.00
2023-11-15T07:15:36.590Z,100.00
2023-11-15T07:18:05.583Z,100.00
2023-11-15T07:20:33.179Z,100.00
2023-11-15T07:23:00.672Z,100.00
2023-11-15T07:25:46.802Z,100.00
2023-11-15T07:28:14.280Z,100.00
2023-11-15T07:30:43.334Z,100.00
2023-11-15T07:33:12.310Z,100.00
2023-11-15T07:35:40.068Z,100.00
2023-11-15T07:38:10.602Z,100.00
2023-11-15T07:40:38.617Z,100.00
2023-11-15T07:43:24.754Z,100.00
2023-11-15T07:45:55.080Z,100.00
2023-11-15T07:48:24.560Z,100.00
2023-11-15T07:50:52.578Z,100.00
2023-11-15T07:53:20.193Z,100.00
2023-11-15T07:55:47.700Z,100.00
2023-11-15T07:58:18.360Z,100.00
2023-11-15T08:00:45.846Z,100.00
2023-11-15T08:03:33.152Z,100.00
2023-11-15T08:06:00.720Z,100.00
2023-11-15T08:08:28.272Z,100.00
2023-11-15T08:10:55.778Z,100.00
2023-11-15T08:13:24.138Z,100.00
2023-11-15T08:15:51.905Z,100.00
2023-11-15T08:18:19.634Z,100.00
2023-11-15T08:20:48.795Z,100.00
2023-11-15T08:23:16.458Z,100.00
2023-11-15T08:25:49.472Z,100.00
2023-11-15T08:28:17.127Z,100.00
2023-11-15T08:30:46.778Z,100.00
2023-11-15T08:33:17.834Z,100.00
2023-11-15T08:35:48.145Z,100.00
2023-11-15T08:38:20.763Z,100.00
2023-11-15T08:41:07.497Z,100.00
2023-11-15T08:43:53.461Z,100.00
2023-11-15T08:46:21.375Z,100.00
2023-11-15T08:48:52.829Z,100.00
2023-11-15T08:51:20.646Z,100.00
2023-11-15T08:53:49.546Z,100.00
2023-11-15T08:56:17.098Z,100.00
2023-11-15T08:58:44.662Z,100.00
2023-11-15T09:01:12.172Z,100.00
2023-11-15T09:03:58.460Z,100.00
2023-11-15T09:06:26.128Z,100.00
2023-11-15T09:08:55.764Z,100.00
2023-11-15T09:11:23.391Z,100.00
2023-11-15T09:13:51.169Z,100.00
2023-11-15T09:16:20.439Z,100.00
2023-11-15T09:18:49.748Z,100.00
2023-11-15T09:21:36.141Z,100.00
2023-11-15T09:24:06.233Z,100.00
2023-11-15T09:26:33.962Z,100.00
2023-11-15T09:29:01.550Z,100.00
2023-11-15T09:31:29.062Z,100.00
2023-11-15T09:34:15.315Z,100.00
2023-11-15T09:36:43.655Z,100.00
2023-11-15T09:39:15.901Z,100.00
2023-11-15T09:41:50.206Z,100.00
2023-11-15T09:44:21.086Z,100.00
2023-11-15T09:47:09.053Z,100.00
2023-11-15T09:49:37.742Z,100.00
2023-11-15T09:52:06.938Z,100.00
2023-11-15T09:54:38.204Z,100.00
2023-11-15T09:57:09.061Z,100.00
2023-11-15T09:59:36.912Z,100.00
2023-11-15T10:02:06.101Z,100.00
2023-11-15T10:04:33.599Z,100.00
2023-11-15T10:07:06.108Z,100.00
2023-11-15T10:09:38.063Z,100.00
2023-11-15T10:12:09.742Z,100.00
2023-11-15T10:14:52.363Z,100.00
2023-11-15T10:17:21.869Z,100.00
2023-11-15T10:19:49.814Z,100.00
2023-11-15T10:22:18.967Z,100.00
2023-11-15T10:25:06.013Z,100.00
2023-11-15T10:27:37.091Z,100.00
2023-11-15T10:30:13.957Z,100.00
2023-11-15T10:32:46.792Z,100.00
2023-11-15T10:35:28.572Z,100.00
2023-11-15T10:37:56.891Z,100.00
2023-11-15T10:40:31.181Z,100.00
2023-11-15T10:43:00.066Z,100.00
2023-11-15T10:45:32.215Z,100.00
2023-11-15T10:48:05.294Z,100.00
2023-11-15T10:50:35.050Z,100.00
2023-11-15T10:53:03.382Z,100.00
2023-11-15T10:55:32.640Z,100.00
2023-11-15T10:58:03.931Z,100.00
2023-11-15T11:00:32.465Z,100.00
2023-11-15T11:03:00.103Z,100.00
2023-11-15T11:05:42.089Z,100.00
2023-11-15T11:08:23.443Z,100.00
2023-11-15T11:11:03.467Z,100.00
2023-11-15T11:13:34.449Z,100.00
2023-11-15T11:16:35.795Z,100.00
2023-11-15T11:19:12.512Z,100.00
2023-11-15T11:22:13.151Z,100.00
2023-11-15T11:24:47.175Z,100.00
2023-11-15T11:27:32.914Z,100.00
2023-11-15T11:30:17.051Z,98.18
2023-11-15T11:32:48.762Z,98.75
2023-11-15T11:35:31.942Z,100.00
2023-11-15T11:38:01.398Z,94.62
2023-11-15T11:40:32.870Z,93.47
2023-11-15T11:43:16.251Z,90.98
2023-11-15T11:46:30.661Z,92.02
2023-11-15T11:53:04.729Z,93.46
2023-11-15T11:55:33.368Z,93.49
2023-11-15T11:58:03.349Z,90.94
2023-11-15T12:00:32.319Z,92.89
2023-11-15T12:03:03.521Z,90.66
2023-11-15T12:05:33.909Z,90.50
2023-11-15T12:08:03.414Z,89.49
2023-11-15T12:10:32.057Z,86.39
2023-11-15T12:13:01.620Z,86.43
2023-11-15T12:15:29.556Z,86.29
2023-11-15T12:18:00.976Z,86.63
2023-11-15T12:20:30.264Z,85.35
2023-11-15T12:23:06.161Z,83.96
2023-11-15T12:25:34.384Z,83.76
2023-11-15T12:28:02.978Z,84.43
2023-11-15T12:30:33.665Z,83.40
2023-11-15T12:33:03.944Z,81.16
2023-11-15T12:35:32.735Z,83.37
2023-11-15T12:38:05.531Z,82.15
2023-11-15T12:40:35.746Z,82.82
2023-11-15T12:43:19.172Z,82.16
2023-11-15T12:45:47.555Z,82.42
2023-11-15T12:48:16.797Z,82.11
2023-11-15T12:50:49.582Z,83.37
2023-11-15T12:53:18.735Z,82.84
2023-11-15T12:55:50.587Z,84.03
2023-11-15T12:58:19.251Z,81.45
2023-11-15T13:01:00.551Z,80.69
2023-11-15T13:03:32.433Z,80.08
2023-11-15T13:06:10.710Z,79.30
2023-11-15T13:08:39.260Z,80.92
2023-11-15T13:11:07.051Z,82.02
2023-11-15T13:13:34.723Z,80.37
2023-11-15T13:16:02.422Z,81.84
2023-11-15T13:18:31.388Z,82.59
2023-11-15T13:20:59.374Z,80.15
2023-11-15T13:23:28.316Z,81.43
2023-11-15T13:25:55.869Z,79.62
2023-11-15T13:28:23.565Z,80.82
2023-11-15T13:30:51.426Z,81.07
2023-11-15T13:33:19.591Z,81.91
2023-11-15T13:35:50.479Z,81.92
2023-11-15T13:38:18.006Z,81.68
2023-11-15T13:40:46.134Z,83.06
2023-11-15T13:43:13.754Z,82.96
2023-11-15T13:45:43.324Z,82.72
2023-11-15T13:48:11.042Z,83.95
2023-11-15T13:50:38.590Z,85.46
2023-11-15T13:53:07.497Z,85.23
2023-11-15T13:55:35.324Z,85.66
2023-11-15T13:58:03.169Z,85.19
2023-11-15T14:00:34.830Z,83.39
2023-11-15T14:03:07.596Z,84.55
2023-11-15T14:05:35.351Z,83.26
2023-11-15T14:08:06.091Z,84.00
2023-11-15T14:10:35.169Z,83.64
2023-11-15T14:13:06.122Z,83.81
2023-11-15T14:15:34.009Z,84.42
2023-11-15T14:18:05.032Z,84.95
2023-11-15T14:20:32.749Z,85.58
2023-11-15T14:23:00.345Z,86.36
2023-11-15T14:25:33.089Z,84.89
2023-11-15T14:28:04.071Z,83.60
2023-11-15T14:30:31.919Z,83.78
2023-11-15T14:32:59.906Z,82.09
2023-11-15T14:35:28.489Z,82.11
2023-11-15T14:37:57.162Z,82.27
2023-11-15T14:40:25.740Z,81.99
2023-11-15T14:42:57.002Z,79.81
2023-11-15T14:45:26.597Z,81.27
2023-11-15T14:47:54.832Z,81.22
2023-11-15T14:50:24.274Z,80.94
2023-11-15T14:53:09.053Z,81.79
2023-11-15T14:55:36.953Z,82.57
2023-11-15T14:58:04.896Z,81.19
2023-11-15T15:00:35.241Z,80.79
2023-11-15T15:03:03.853Z,82.18
2023-11-15T15:05:31.462Z,81.89
2023-11-15T15:08:01.231Z,81.50
2023-11-15T15:10:28.783Z,81.59
2023-11-15T15:12:56.418Z,81.77
2023-11-15T15:15:24.604Z,81.48
2023-11-15T15:17:53.640Z,82.52
2023-11-15T15:20:21.354Z,82.73
2023-11-15T15:22:49.301Z,82.20
2023-11-15T15:25:17.228Z,79.66
2023-11-15T15:27:45.442Z,80.36
2023-11-15T15:30:18.243Z,79.85
2023-11-15T15:32:46.622Z,81.61
2023-11-15T15:35:16.557Z,81.59
2023-11-15T15:37:48.468Z,82.40
2023-11-15T15:40:19.901Z,83.61
2023-11-15T15:42:48.322Z,83.43
2023-11-15T15:45:16.496Z,84.01
2023-11-15T15:47:45.146Z,82.80
2023-11-15T15:50:12.869Z,83.61
2023-11-15T15:52:42.601Z,83.11
2023-11-15T15:55:11.563Z,84.17
2023-11-15T15:57:39.427Z,83.55
2023-11-15T16:00:08.348Z,82.87
2023-11-15T16:02:36.406Z,83.23
2023-11-15T16:05:04.718Z,83.61
2023-11-15T16:07:33.432Z,84.45
2023-11-15T16:10:02.957Z,84.95
2023-11-15T16:12:37.235Z,84.57
2023-11-15T16:15:09.479Z,85.05
2023-11-15T16:17:37.464Z,85.31
2023-11-15T16:20:06.161Z,85.09
2023-11-15T16:22:33.561Z,86.52
2023-11-15T16:25:02.498Z,86.41
2023-11-15T16:27:34.489Z,86.76
2023-11-15T16:30:06.452Z,87.09
2023-11-15T16:32:36.578Z,88.42
2023-11-15T16:35:06.636Z,88.32
2023-11-15T16:37:36.865Z,89.24
2023-11-15T16:40:09.103Z,88.52
2023-11-15T16:42:39.931Z,89.21
2023-11-15T16:45:09.095Z,89.87
2023-11-15T16:47:39.303Z,89.49
2023-11-15T16:50:08.405Z,89.74
2023-11-15T16:52:36.436Z,89.79
2023-11-15T16:55:05.006Z,90.82
2023-11-15T16:57:35.668Z,90.74
2023-11-15T17:00:03.538Z,91.06
2023-11-15T17:02:31.164Z,91.25
2023-11-15T17:04:58.665Z,91.00
2023-11-15T17:07:26.258Z,90.54
2023-11-15T17:09:53.857Z,90.20
2023-11-15T17:12:24.045Z,89.98
2023-11-15T17:14:53.073Z,89.53
2023-11-15T17:17:20.827Z,90.20
2023-11-15T17:19:48.374Z,90.13
2023-11-15T17:22:16.225Z,90.77
2023-11-15T17:24:44.419Z,91.07
2023-11-15T17:27:11.980Z,92.00
2023-11-15T17:29:40.602Z,92.75
2023-11-15T17:32:09.951Z,91.99
2023-11-15T17:34:37.644Z,92.86
2023-11-15T17:37:05.489Z,93.45
2023-11-15T17:39:33.312Z,93.28
2023-11-15T17:42:06.851Z,93.89
2023-11-15T17:44:34.481Z,94.77
2023-11-15T17:47:02.053Z,94.45
2023-11-15T17:49:33.502Z,93.41
2023-11-15T17:52:03.013Z,94.07
2023-11-15T17:54:33.528Z,93.81
2023-11-15T17:57:01.139Z,94.36
2023-11-15T17:59:28.818Z,94.74
2023-11-15T18:01:58.379Z,93.91
2023-11-15T18:04:27.161Z,93.59
2023-11-15T18:06:55.919Z,93.29
2023-11-15T18:09:27.579Z,93.16
2023-11-15T18:11:55.234Z,91.48
2023-11-15T18:14:22.801Z,92.84
2023-11-15T18:16:50.272Z,92.21
2023-11-15T18:19:21.945Z,91.72
2023-11-15T18:21:50.020Z,91.32
2023-11-15T18:24:19.204Z,92.08
2023-11-15T18:26:49.462Z,91.23
2023-11-15T18:29:17.051Z,90.56
2023-11-15T18:31:44.707Z,91.44
2023-11-15T18:34:12.510Z,90.47
2023-11-15T18:36:44.294Z,90.57
2023-11-15T18:39:18.105Z,90.83
2023-11-15T18:41:49.426Z,89.30
2023-11-15T18:44:17.286Z,88.79
2023-11-15T18:46:49.638Z,86.31
2023-11-15T18:49:18.640Z,85.11
2023-11-15T18:51:48.421Z,84.08
2023-11-15T18:54:19.325Z,83.13
2023-11-15T18:56:47.298Z,84.00
2023-11-15T18:59:16.109Z,82.81
2023-11-15T19:01:48.063Z,82.80
2023-11-15T19:04:15.771Z,82.93
2023-11-15T19:06:44.565Z,81.27
2023-11-15T19:09:12.172Z,81.18
2023-11-15T19:11:40.523Z,81.22
2023-11-15T19:14:08.049Z,80.30
2023-11-15T19:16:37.058Z,80.31
2023-11-15T19:19:05.897Z,80.26
2023-11-15T19:21:33.416Z,79.87
2023-11-15T19:24:01.574Z,80.43
2023-11-15T19:26:32.148Z,80.42
2023-11-15T19:28:59.618Z,80.88
2023-11-15T19:31:27.120Z,80.65
2023-11-15T19:33:57.012Z,81.56
2023-11-15T19:36:24.599Z,81.58
2023-11-15T19:38:52.230Z,81.32
2023-11-15T19:41:19.919Z,81.43
2023-11-15T19:43:47.715Z,82.69
2023-11-15T19:46:18.822Z,82.81
2023-11-15T19:48:47.654Z,82.22
2023-11-15T19:51:36.992Z,83.53
2023-11-15T19:54:08.186Z,83.07
2023-11-15T19:56:36.040Z,83.58
2023-11-15T19:59:04.818Z,83.88
2023-11-15T20:01:32.368Z,84.41
2023-11-15T20:04:02.060Z,83.86
2023-11-15T20:06:31.977Z,82.91
2023-11-15T20:08:59.829Z,81.94
2023-11-15T20:11:27.891Z,82.25
2023-11-15T20:13:55.687Z,82.96
2023-11-15T20:16:24.379Z,82.36
2023-11-15T20:18:52.051Z,82.94
2023-11-15T20:21:20.776Z,83.05
2023-11-15T20:23:49.438Z,82.76
2023-11-15T20:26:17.013Z,82.55
2023-11-15T20:28:44.937Z,81.70
2023-11-15T20:31:12.740Z,81.79
2023-11-15T20:33:42.489Z,81.86
2023-11-15T20:36:11.497Z,81.32
2023-11-15T20:38:39.380Z,80.61
2023-11-15T20:41:08.739Z,79.92
2023-11-15T20:43:37.103Z,79.58
2023-11-15T20:46:17.279Z,80.52
2023-11-15T20:48:47.174Z,80.32
2023-11-15T20:51:15.134Z,80.56
2023-11-15T20:53:42.855Z,80.88
2023-11-15T20:56:11.674Z,80.48
2023-11-15T20:58:39.175Z,80.71
2023-11-15T21:01:07.782Z,80.69
2023-11-15T21:03:35.508Z,82.06
2023-11-15T21:06:05.326Z,81.78
2023-11-15T21:08:35.970Z,80.19
2023-11-15T21:11:04.663Z,81.67
2023-11-15T21:13:33.404Z,81.13
2023-11-15T21:16:07.291Z,81.41
2023-11-15T21:18:34.900Z,81.77
2023-11-15T21:21:03.579Z,81.49
2023-11-15T21:23:31.624Z,81.41
2023-11-15T21:25:59.277Z,81.93
2023-11-15T21:28:26.761Z,82.73
2023-11-15T21:30:55.628Z,82.90
2023-11-15T21:33:23.157Z,83.31
2023-11-15T21:35:52.838Z,83.17
2023-11-15T21:38:20.565Z,83.57
2023-11-15T21:40:48.529Z,82.80
2023-11-15T21:43:16.063Z,82.81
2023-11-15T21:45:43.642Z,82.66
2023-11-15T21:48:12.617Z,82.41
2023-11-15T21:50:40.062Z,82.16
2023-11-15T21:53:07.905Z,82.24
2023-11-15T21:55:35.497Z,82.48
2023-11-15T21:58:03.705Z,82.01
2023-11-15T22:00:32.025Z,81.72
2023-11-15T22:02:59.682Z,82.59
2023-11-15T22:05:28.637Z,83.44
2023-11-15T22:07:56.267Z,84.35
2023-11-15T22:10:23.965Z,84.02
2023-11-15T22:12:52.108Z,84.88
2023-11-15T22:15:21.213Z,85.38
2023-11-15T22:17:49.288Z,84.87
2023-11-15T22:20:16.895Z,86.52
2023-11-15T22:22:46.030Z,86.86
2023-11-15T22:25:13.684Z,87.47
2023-11-15T22:27:41.224Z,86.31
2023-11-15T22:30:11.185Z,87.18
2023-11-15T22:32:39.604Z,85.98
2023-11-15T22:35:08.167Z,87.37
2023-11-15T22:37:35.777Z,87.60
2023-11-15T22:40:07.074Z,87.65
2023-11-15T22:42:34.631Z,89.36
2023-11-15T22:45:02.984Z,90.35
2023-11-15T22:47:30.677Z,88.70
2023-11-15T22:49:58.476Z,87.80
2023-11-15T22:52:25.943Z,88.52
2023-11-15T22:54:53.438Z,90.13
2023-11-15T22:57:22.365Z,88.04
2023-11-15T22:59:52.340Z,88.71
2023-11-15T23:02:21.006Z,87.99
2023-11-15T23:04:48.835Z,88.04
2023-11-15T23:07:21.401Z,88.41
2023-11-15T23:09:49.252Z,90.10
2023-11-15T23:12:17.078Z,88.64
2023-11-15T23:14:46.467Z,90.18
2023-11-15T23:17:13.916Z,89.21
2023-11-15T23:19:41.463Z,89.52
2023-11-15T23:22:09.459Z,88.93
2023-11-15T23:24:37.967Z,89.43
2023-11-15T23:27:06.173Z,89.31
2023-11-15T23:29:34.088Z,88.79
2023-11-15T23:32:06.468Z,88.15
2023-11-15T23:34:34.044Z,90.11
2023-11-15T23:37:01.594Z,89.92
2023-11-15T23:39:29.057Z,87.84
2023-11-15T23:41:56.574Z,89.10
2023-11-15T23:44:24.041Z,88.94
2023-11-15T23:46:52.865Z,89.28
2023-11-15T23:49:22.144Z,89.42
2023-11-15T23:51:49.581Z,88.86
2023-11-15T23:54:18.300Z,88.88
2023-11-15T23:56:45.929Z,88.06
2023-11-15T23:59:13.495Z,88.16
